createdAt,value
2024-05-09T00:00:54.373Z,22.23
2024-05-09T00:03:25.167Z,22.47
2024-05-09T00:05:56.436Z,22.73
2024-05-09T00:08:27.263Z,22.90
2024-05-09T00:11:00.563Z,21.93
2024-05-09T00:13:31.238Z,21.60
2024-05-09T00:16:02.515Z,20.27
2024-05-09T00:18:33.493Z,22.27
2024-05-09T00:21:04.087Z,21.50
2024-05-09T00:23:34.786Z,22.13
2024-05-09T00:26:08.392Z,20.83
2024-05-09T00:29:14.911Z,23.40
2024-05-09T00:32:10.365Z,21.33
2024-05-09T00:35:14.916Z,23.60
2024-05-09T00:37:45.430Z,22.50
2024-05-09T00:40:22.936Z,23.27
2024-05-09T00:43:04.966Z,20.90
2024-05-09T00:45:36.646Z,22.37
2024-05-09T00:48:09.580Z,22.37
2024-05-09T00:50:42.472Z,21.93
2024-05-09T00:53:15.220Z,22.20
2024-05-09T00:55:46.076Z,22.27
2024-05-09T00:58:20.070Z,21.83
2024-05-09T01:00:51.310Z,22.30
2024-05-09T01:03:22.388Z,21.70
2024-05-09T01:05:53.510Z,22.00
2024-05-09T01:08:24.397Z,22.43
2024-05-09T01:10:56.227Z,22.60
2024-05-09T01:13:29.557Z,20.87
2024-05-09T01:16:03.527Z,22.63
2024-05-09T01:18:34.716Z,22.67
2024-05-09T01:21:08.317Z,21.67
2024-05-09T01:23:42.066Z,21.53
2024-05-09T01:26:13.159Z,21.13
2024-05-09T01:28:43.779Z,22.13
2024-05-09T01:31:16.206Z,20.77
2024-05-09T01:33:47.339Z,21.13
2024-05-09T01:36:18.306Z,18.93
2024-05-09T01:38:52.685Z,18.57
2024-05-09T01:41:23.608Z,20.90
2024-05-09T01:43:55.172Z,20.67
2024-05-09T01:46:29.137Z,19.83
2024-05-09T01:49:00.276Z,19.53
2024-05-09T01:51:31.635Z,21.07
2024-05-09T01:54:06.339Z,18.60
2024-05-09T01:56:36.827Z,19.33
2024-05-09T01:59:10.627Z,20.63
2024-05-09T02:01:56.420Z,20.23
2024-05-09T02:04:28.652Z,20.40
2024-05-09T02:07:01.590Z,19.70
2024-05-09T02:09:34.926Z,19.67
2024-05-09T02:12:05.652Z,20.40
2024-05-09T02:14:36.823Z,19.60
2024-05-09T02:17:07.719Z,20.13
2024-05-09T02:19:38.953Z,19.63
2024-05-09T02:22:09.787Z,18.87
2024-05-09T02:24:47.294Z,20.43
2024-05-09T02:27:18.355Z,19.80
2024-05-09T02:29:49.065Z,20.17
2024-05-09T02:32:20.671Z,21.43
2024-05-09T02:34:51.717Z,20.07
2024-05-09T02:37:22.439Z,21.47
2024-05-09T02:39:53.268Z,20.27
2024-05-09T02:42:23.957Z,20.33
2024-05-09T02:44:51.629Z,20.33
2024-05-09T02:47:22.320Z,20.13
2024-05-09T02:49:50.306Z,20.60
2024-05-09T02:52:21.287Z,20.53
2024-05-09T02:54:49.294Z,20.83
2024-05-09T02:57:24.888Z,20.80
2024-05-09T02:59:52.963Z,20.97
2024-05-09T03:02:23.728Z,20.13
2024-05-09T03:04:51.676Z,20.37
2024-05-09T03:07:22.277Z,20.43
2024-05-09T03:09:50.076Z,19.33
2024-05-09T03:12:23.400Z,21.23
2024-05-09T03:14:51.441Z,20.50
2024-05-09T03:17:24.382Z,19.73
2024-05-09T03:19:52.829Z,19.77
2024-05-09T03:22:23.654Z,19.40
2024-05-09T03:24:51.540Z,19.97
2024-05-09T03:27:25.073Z,19.20
2024-05-09T03:29:53.148Z,21.00
2024-05-09T03:32:23.799Z,20.90
2024-05-09T03:34:51.587Z,19.57
2024-05-09T03:37:22.033Z,19.70
2024-05-09T03:39:52.802Z,19.27
2024-05-09T03:42:31.190Z,19.87
2024-05-09T03:44:59.087Z,19.67
2024-05-09T03:47:29.767Z,19.10
2024-05-09T03:49:57.808Z,19.90
2024-05-09T03:52:28.354Z,20.33
2024-05-09T03:54:56.012Z,20.30
2024-05-09T03:57:29.322Z,18.80
2024-05-09T03:59:57.152Z,18.10
2024-05-09T04:02:27.985Z,18.80
2024-05-09T04:04:56.076Z,19.37
2024-05-09T04:07:27.064Z,18.27
2024-05-09T04:09:54.778Z,19.30
2024-05-09T04:12:25.339Z,18.90
2024-05-09T04:14:56.027Z,19.30
2024-05-09T04:17:27.296Z,18.20
2024-05-09T04:19:58.347Z,18.43
2024-05-09T04:22:29.025Z,17.07
2024-05-09T04:24:56.874Z,18.10
2024-05-09T04:27:27.332Z,17.87
2024-05-09T04:30:00.627Z,17.67
2024-05-09T04:32:31.801Z,17.53
2024-05-09T04:34:59.992Z,17.87
2024-05-09T04:37:30.963Z,18.23
2024-05-09T04:39:58.857Z,18.27
2024-05-09T04:42:29.374Z,18.20
2024-05-09T04:44:59.838Z,17.47
2024-05-09T04:47:30.700Z,18.23
2024-05-09T04:49:58.756Z,18.23
2024-05-09T04:52:29.131Z,18.50
2024-05-09T04:54:58.512Z,17.67
2024-05-09T04:57:29.567Z,17.57
2024-05-09T05:00:03.035Z,17.83
2024-05-09T05:02:35.330Z,17.20
2024-05-09T05:05:03.206Z,19.07
2024-05-09T05:07:34.233Z,18.23
2024-05-09T05:10:03.276Z,17.10
2024-05-09T05:12:53.036Z,16.27
2024-05-09T05:15:27.628Z,17.93
2024-05-09T05:17:58.731Z,17.00
2024-05-09T05:20:32.892Z,17.07
2024-05-09T05:23:04.759Z,16.90
2024-05-09T05:25:33.694Z,16.07
2024-05-09T05:28:04.685Z,17.47
2024-05-09T05:30:35.421Z,16.57
2024-05-09T05:33:06.271Z,16.43
2024-05-09T05:35:35.038Z,16.50
2024-05-09T05:38:06.567Z,16.27
2024-05-09T05:40:37.206Z,16.23
2024-05-09T05:43:10.040Z,16.10
2024-05-09T05:45:42.245Z,16.60
2024-05-09T05:48:12.919Z,17.07
2024-05-09T05:50:40.934Z,15.43
2024-05-09T05:53:11.774Z,14.60
2024-05-09T05:55:40.588Z,15.40
2024-05-09T05:58:16.905Z,15.50
2024-05-09T06:00:49.838Z,15.30
2024-05-09T06:03:23.814Z,15.17
2024-05-09T06:05:52.077Z,15.43
2024-05-09T06:08:22.643Z,15.97
2024-05-09T06:10:53.975Z,14.40
2024-05-09T06:13:25.015Z,14.70
2024-05-09T06:15:56.139Z,15.67
2024-05-09T06:18:32.788Z,15.40
2024-05-09T06:21:03.443Z,14.97
2024-05-09T06:23:34.717Z,15.00
2024-05-09T06:26:02.717Z,15.40
2024-05-09T06:28:33.763Z,15.07
2024-05-09T06:31:06.395Z,16.27
2024-05-09T06:33:38.031Z,15.93
2024-05-09T06:36:06.291Z,15.47
2024-05-09T06:38:42.569Z,15.30
2024-05-09T06:41:10.414Z,14.97
2024-05-09T06:43:44.789Z,15.63
2024-05-09T06:46:16.051Z,15.40
2024-05-09T06:48:48.490Z,14.90
2024-05-09T06:51:16.956Z,14.53
2024-05-09T06:53:50.798Z,14.33
2024-05-09T06:56:20.663Z,15.33
2024-05-09T06:58:51.588Z,13.47
2024-05-09T07:01:33.701Z,15.10
2024-05-09T07:04:04.473Z,14.73
2024-05-09T07:06:37.400Z,14.83
2024-05-09T07:09:13.172Z,15.07
2024-05-09T07:11:44.124Z,14.80
2024-05-09T07:14:14.879Z,14.70
2024-05-09T07:19:44.452Z,15.57
2024-05-09T07:22:17.863Z,14.80
2024-05-09T07:25:05.211Z,14.63
2024-05-09T07:27:47.782Z,15.47
2024-05-09T07:30:23.432Z,14.67
2024-05-09T07:39:53.603Z,15.23
2024-05-09T07:45:21.583Z,16.37
2024-05-09T08:04:12.417Z,15.27
2024-05-09T08:06:44.936Z,14.27
2024-05-09T08:09:21.415Z,16.17
2024-05-09T08:34:54.202Z,13.57
2024-05-09T08:37:24.708Z,13.33
2024-05-09T09:01:28.981Z,12.03
2024-05-09T09:04:11.059Z,11.30
2024-05-09T09:06:40.234Z,12.20
2024-05-09T09:09:27.549Z,11.50
2024-05-09T09:11:56.125Z,10.50
2024-05-09T09:14:26.763Z,10.47
2024-05-09T09:16:57.270Z,10.20
2024-05-09T09:19:40.792Z,10.20
2024-05-09T09:22:17.352Z,9.97
2024-05-09T09:25:03.164Z,10.30
2024-05-09T09:27:45.614Z,9.20
2024-05-09T09:30:31.721Z,9.00
2024-05-09T09:52:05.589Z,7.27
2024-05-09T09:55:20.236Z,7.53
2024-05-09T09:58:46.519Z,9.20
2024-05-09T10:18:27.144Z,8.57
2024-05-09T10:21:03.764Z,8.83
2024-05-09T10:34:32.502Z,6.90
2024-05-09T10:37:19.285Z,6.80
2024-05-09T10:40:17.246Z,6.97
2024-05-09T10:51:40.517Z,6.97
2024-05-09T10:54:16.283Z,7.53
2024-05-09T11:02:50.286Z,6.93
2024-05-09T11:05:30.839Z,6.30
2024-05-09T11:19:56.995Z,6.90
2024-05-09T11:22:25.433Z,6.60
2024-05-09T11:24:57.871Z,6.63
2024-05-09T11:27:26.843Z,6.67
2024-05-09T11:29:59.412Z,6.23
2024-05-09T11:32:30.322Z,6.20
2024-05-09T11:35:04.983Z,6.40
2024-05-09T11:37:36.812Z,6.00
2024-05-09T11:40:28.655Z,5.73
2024-05-09T11:43:02.285Z,5.37
2024-05-09T11:45:33.878Z,5.23
2024-05-09T11:48:02.500Z,4.50
2024-05-09T11:50:39.380Z,4.97
2024-05-09T11:53:07.516Z,4.90
2024-05-09T11:55:52.157Z,4.63
2024-05-09T11:58:23.148Z,4.90
2024-05-09T12:00:51.573Z,4.20
2024-05-09T12:14:54.980Z,4.33
2024-05-09T12:17:29.251Z,4.97
2024-05-09T12:20:00.265Z,4.73
2024-05-09T12:22:32.506Z,5.40
2024-05-09T12:25:02.347Z,5.00
2024-05-09T12:27:36.452Z,5.60
2024-05-09T12:33:38.900Z,5.80
2024-05-09T12:36:58.368Z,4.60
2024-05-09T12:40:06.681Z,6.37
2024-05-09T12:48:37.176Z,6.07
2024-05-09T12:51:13.688Z,6.13
2024-05-09T13:05:02.016Z,6.40
2024-05-09T13:07:51.291Z,6.57
2024-05-09T13:10:31.698Z,6.33
2024-05-09T13:16:04.687Z,6.63
2024-05-09T13:18:37.109Z,6.80
2024-05-09T13:24:20.250Z,5.77
2024-05-09T13:26:48.802Z,5.40
2024-05-09T13:32:07.439Z,5.73
2024-05-09T13:34:39.621Z,5.77
2024-05-09T13:37:08.300Z,6.07
2024-05-09T13:39:46.460Z,5.37
2024-05-09T13:44:59.529Z,5.63
2024-05-09T13:47:28.011Z,5.00
2024-05-09T13:49:58.932Z,4.80
2024-05-09T13:52:27.674Z,4.40
2024-05-09T13:55:29.041Z,4.53
2024-05-09T13:58:00.880Z,5.40
2024-05-09T14:00:43.888Z,4.93
2024-05-09T14:06:01.007Z,4.67
2024-05-09T14:08:29.049Z,5.13
2024-05-09T14:11:01.467Z,5.27
2024-05-09T14:16:33.308Z,4.50
2024-05-09T14:24:46.822Z,4.33
2024-05-09T14:27:14.974Z,5.07
2024-05-09T14:30:22.978Z,4.33
2024-05-09T17:18:30.914Z,3.67
2024-05-09T17:21:01.629Z,4.30
2024-05-09T17:23:38.674Z,3.70
2024-05-09T17:28:52.961Z,3.80
2024-05-09T17:34:28.749Z,3.37
2024-05-09T17:39:46.079Z,2.80
2024-05-09T17:42:24.472Z,3.17
2024-05-09T18:37:55.620Z,4.13
2024-05-09T19:08:34.761Z,5.20
